UUEE/SVO METAR and TAF weather

Enter ICAO airport designator
Station Type Date Time Source
UUEE METAR 2022/01/29 11:00 UTC NOAA

UUEE 291100Z VRB01MPS 4800 -SN BR OVC020 M04/M07 Q1003 R88/550230 TEMPO 0900 +SHSN BKN016CB


Station Type Date Time Source
UUEE Decoded METAR 2022/01/29 11:00 UTC NOAA

Moscow / Sheremet'Ye , Russia (UUEE) 55-59N 037-30E
Jan 29, 2022 - 06:00 AM EST / 2022.01.29 1100 UTC
Wind: Variable at 2 MPH (2 KT):0
Visibility: 2 mile(s):0
Sky conditions: overcast
Weather: light snow; mist; Cumulonimbus clouds observed
Temperature: 24 F (-4 C)
Dew Point: 19 F (-7 C)
Relative Humidity: 79%
Pressure (altimeter): 29.62 in. Hg (1003 hPa)
ob: UUEE 291100Z VRB01MPS 4800 -SN BR OVC020 M04/M07 Q1003 R88/550230 TEMPO 0900 +SHSN BKN016CB
cycle: 11

Station Type Date Time Source
UUEE TAF 2022/01/29 12:21 UTC NOAA

TAF TAF UUEE 291050Z 2912/3012 28002MPS 5000 -SN BR FEW006 BKN016 TXM02/2913Z TNM06/2921Z
TEMPO 2912/2921 0900 +SHSN FEW004 BKN016CB
BECMG 3001/3003 15006MPS
TEMPO 3006/3012 13009G15MPS

Example: see airport list